Bunch, OK (74931)

3:12 AM CDT on August 30, 2014 (GMT -0500)
The Leaf PH | Change Station
CLOSE
Current Station
Personal Weather Station
Location: Park Hill, OK
Elevation: 814 ft
Nearby Weather Stations

Elev 814 ft 35.77 °N, 94.91 °W | Updated 7 minutes ago

Mostly Cloudy
Mostly Cloudy
74.7 °F
Feels Like 72 °F
N
4.7
Wind Variable Wind from SSE

Today
High -- | Low -- °F
--% Chance of Precip.
Yesterday
High -- | Low -- °F
Precip. -- in
6:49 AM 7:49 PM
Waxing Crescent, 20% visible
Pressure 29.95 in
Visibility 10.0 miles
Clouds Scattered Clouds 400 ft
Scattered Clouds 900 ft
Mostly Cloudy 4200 ft
Heat Index 72 °F
Dew Point 74 °F
Humidity 98%
Rainfall 0.00 in
Snow Depth Not available.
UV 0 out of 12
Pollen 9.90 out of 12
Air Quality Not available.
Flu Activity Not available.
METAR KJSV 300755Z AUTO 11004KT 10SM SCT004 SCT009 BKN042 22/21 A2995 RMK AO2 P0003

More Conditions Fewer Conditions

Pressure 29.95 in
Visibility 10.0 miles
Clouds Scattered Clouds 400 ft
Scattered Clouds 900 ft
Mostly Cloudy 4200 ft
Heat Index 72 °F
Dew Point 74 °F
Humidity 98%
Rainfall 0.00 in
Snow Depth Not available.
UV 0 out of 12
Pollen 9.90 out of 12
Air Quality Not available.
Flu Activity Not available.
METAR KJSV 300755Z AUTO 11004KT 10SM SCT004 SCT009 BKN042 22/21 A2995 RMK AO2 P0003

More Conditions Fewer Conditions

Nowcast | as of 1:42 am CDT on August 30, 2014

At 1:45 am...weather radars detected scattered showers and isolated thunderstorms east of a line from Vinita to McAlester. The majority of the precipitation was occurring from far southeast Oklahoma into west central Arkansas. Movement was to the northeast at 20 mph. Through 4 am...scattered showers and isolated thunderstorms will continue to expand across far eastern Oklahoma and northwest Arkansas. Brief heavy downpours and small hail will be possible with the strongest storms.

×

10-Day Weather Forecast

Almanac

Astronomy

Aug. 30, 2014 Rise Set
Actual Time 6:49 AM CDT 7:49 PM CDT
Civil Twilight 6:23 AM CDT 8:15 PM CDT
Nautical Twilight 5:52 AM CDT 8:46 PM CDT
Astronomical Twilight 5:20 AM CDT 9:18 PM CDT
Moon 11:27 AM CDT 10:35 PM CDT
Length of Visible Light 13h 51m
Length of Day
12h 59m
Tomorrow will be 2m 9s shorter.
Waxing Crescent, 20% of the Moon is Illuminated
Today
Waxing Crescent
Sep 2
First Quarter
Sep 8
Full
Sep 15
Last Quarter
Sep 24
New

Today's Extremes

State Highs State Lows

Community

WunderPhotos

Upload Photos

1,748,468 photos uploaded!

Nearby

Snow Depth

Station Depth Elevation
No new snow has been reported.

Earthquake Activity

City Distance Mag. Time & Date
No recent earthquake activity has been reported nearby.
Minimum magnitude displayed is 2.5.

Coastal Water Temperatures

Place Temperature
No Stations Reporting

Nearby Weather Stations